sensor_id;sensor_type;location;lat;lon;timestamp;P1;durP1;ratioP1;P2;durP2;ratioP2
49728;SDS011;35617;50.714;7.114;2022-09-09T00:05:32;4.00;;;0.90;;
49728;SDS011;35617;50.714;7.114;2022-09-09T00:08:04;5.95;;;1.20;;
49728;SDS011;35617;50.714;7.114;2022-09-09T00:10:30;5.70;;;1.00;;
49728;SDS011;35617;50.714;7.114;2022-09-09T00:13:01;4.63;;;1.25;;
49728;SDS011;35617;50.714;7.114;2022-09-09T00:15:48;5.38;;;1.17;;
49728;SDS011;35617;50.714;7.114;2022-09-09T00:18:49;4.90;;;1.10;;
49728;SDS011;35617;50.714;7.114;2022-09-09T00:21:35;3.85;;;0.98;;
49728;SDS011;35617;50.714;7.114;2022-09-09T00:24:14;4.40;;;1.02;;
49728;SDS011;35617;50.714;7.114;2022-09-09T00:26:54;4.45;;;1.05;;
49728;SDS011;35617;50.714;7.114;2022-09-09T00:29:28;5.13;;;1.08;;
49728;SDS011;35617;50.714;7.114;2022-09-09T00:31:59;5.63;;;1.20;;
49728;SDS011;35617;50.714;7.114;2022-09-09T00:34:36;6.38;;;1.00;;
49728;SDS011;35617;50.714;7.114;2022-09-09T00:37:04;4.72;;;1.10;;
49728;SDS011;35617;50.714;7.114;2022-09-09T00:39:41;7.80;;;1.20;;
49728;SDS011;35617;50.714;7.114;2022-09-09T00:44:45;4.63;;;1.00;;
49728;SDS011;35617;50.714;7.114;2022-09-09T00:52:39;5.38;;;1.27;;
49728;SDS011;35617;50.714;7.114;2022-09-09T00:55:23;6.65;;;1.65;;
49728;SDS011;35617;50.714;7.114;2022-09-09T00:57:52;4.85;;;1.40;;
49728;SDS011;35617;50.714;7.114;2022-09-09T01:05:39;3.80;;;0.93;;
49728;SDS011;35617;50.714;7.114;2022-09-09T01:11:00;4.70;;;1.10;;
49728;SDS011;35617;50.714;7.114;2022-09-09T01:13:34;5.82;;;1.20;;
49728;SDS011;35617;50.714;7.114;2022-09-09T01:16:01;5.35;;;1.08;;
49728;SDS011;35617;50.714;7.114;2022-09-09T01:18:29;4.88;;;1.08;;
49728;SDS011;35617;50.714;7.114;2022-09-09T01:29:16;4.70;;;1.17;;
49728;SDS011;35617;50.714;7.114;2022-09-09T01:31:56;4.00;;;0.90;;
49728;SDS011;35617;50.714;7.114;2022-09-09T01:34:25;3.70;;;1.10;;
49728;SDS011;35617;50.714;7.114;2022-09-09T01:39:29;4.85;;;1.00;;
49728;SDS011;35617;50.714;7.114;2022-09-09T01:41:55;4.63;;;1.13;;
49728;SDS011;35617;50.714;7.114;2022-09-09T01:44:21;4.30;;;1.02;;
49728;SDS011;35617;50.714;7.114;2022-09-09T01:46:49;4.70;;;1.02;;
49728;SDS011;35617;50.714;7.114;2022-09-09T01:49:15;4.13;;;1.02;;
49728;SDS011;35617;50.714;7.114;2022-09-09T01:51:42;6.10;;;1.05;;
49728;SDS011;35617;50.714;7.114;2022-09-09T01:54:10;4.55;;;1.20;;
49728;SDS011;35617;50.714;7.114;2022-09-09T01:56:40;5.25;;;1.20;;
49728;SDS011;35617;50.714;7.114;2022-09-09T02:02:09;4.22;;;1.10;;
49728;SDS011;35617;50.714;7.114;2022-09-09T02:04:36;5.97;;;1.10;;
49728;SDS011;35617;50.714;7.114;2022-09-09T02:09:57;4.05;;;0.80;;
49728;SDS011;35617;50.714;7.114;2022-09-09T02:12:33;5.75;;;0.90;;
49728;SDS011;35617;50.714;7.114;2022-09-09T02:15:05;4.47;;;1.00;;
49728;SDS011;35617;50.714;7.114;2022-09-09T02:17:36;5.93;;;1.55;;
49728;SDS011;35617;50.714;7.114;2022-09-09T02:20:07;7.50;;;1.23;;
49728;SDS011;35617;50.714;7.114;2022-09-09T02:22:35;6.28;;;1.27;;
49728;SDS011;35617;50.714;7.114;2022-09-09T02:25:05;8.68;;;1.58;;
49728;SDS011;35617;50.714;7.114;2022-09-09T02:27:33;4.88;;;1.27;;
49728;SDS011;35617;50.714;7.114;2022-09-09T02:29:59;7.68;;;1.70;;
49728;SDS011;35617;50.714;7.114;2022-09-09T02:32:27;6.95;;;1.25;;
49728;SDS011;35617;50.714;7.114;2022-09-09T02:35:00;5.78;;;1.17;;
49728;SDS011;35617;50.714;7.114;2022-09-09T02:37:47;4.30;;;1.00;;
49728;SDS011;35617;50.714;7.114;2022-09-09T02:40:16;4.35;;;1.10;;
49728;SDS011;35617;50.714;7.114;2022-09-09T02:42:43;5.57;;;1.35;;
49728;SDS011;35617;50.714;7.114;2022-09-09T02:45:10;6.28;;;1.10;;
49728;SDS011;35617;50.714;7.114;2022-09-09T02:47:50;4.80;;;1.10;;
49728;SDS011;35617;50.714;7.114;2022-09-09T02:55:39;5.93;;;1.45;;
49728;SDS011;35617;50.714;7.114;2022-09-09T02:58:16;6.75;;;1.40;;
49728;SDS011;35617;50.714;7.114;2022-09-09T03:00:44;5.90;;;1.25;;
49728;SDS011;35617;50.714;7.114;2022-09-09T03:03:11;7.72;;;1.30;;
49728;SDS011;35617;50.714;7.114;2022-09-09T03:05:37;5.78;;;1.30;;
49728;SDS011;35617;50.714;7.114;2022-09-09T03:08:04;4.82;;;1.13;;
49728;SDS011;35617;50.714;7.114;2022-09-09T03:10:30;6.50;;;1.27;;
49728;SDS011;35617;50.714;7.114;2022-09-09T03:12:57;5.10;;;1.10;;
49728;SDS011;35617;50.714;7.114;2022-09-09T03:15:22;5.32;;;1.23;;
49728;SDS011;35617;50.714;7.114;2022-09-09T03:17:48;5.72;;;1.17;;
49728;SDS011;35617;50.714;7.114;2022-09-09T03:20:13;6.03;;;1.20;;
49728;SDS011;35617;50.714;7.114;2022-09-09T03:22:39;6.30;;;1.38;;
49728;SDS011;35617;50.714;7.114;2022-09-09T03:25:05;5.85;;;1.10;;
49728;SDS011;35617;50.714;7.114;2022-09-09T03:27:31;6.85;;;1.40;;
49728;SDS011;35617;50.714;7.114;2022-09-09T03:29:57;4.57;;;1.40;;
49728;SDS011;35617;50.714;7.114;2022-09-09T03:32:23;5.30;;;1.17;;
49728;SDS011;35617;50.714;7.114;2022-09-09T03:34:51;7.40;;;1.17;;
49728;SDS011;35617;50.714;7.114;2022-09-09T03:37:17;5.28;;;1.20;;
49728;SDS011;35617;50.714;7.114;2022-09-09T03:39:43;5.78;;;1.20;;
49728;SDS011;35617;50.714;7.114;2022-09-09T03:42:11;7.18;;;1.25;;
49728;SDS011;35617;50.714;7.114;2022-09-09T03:44:39;4.78;;;1.38;;
49728;SDS011;35617;50.714;7.114;2022-09-09T03:47:04;6.38;;;1.27;;
49728;SDS011;35617;50.714;7.114;2022-09-09T03:49:31;5.72;;;1.23;;
49728;SDS011;35617;50.714;7.114;2022-09-09T03:51:56;5.47;;;1.50;;
49728;SDS011;35617;50.714;7.114;2022-09-09T03:54:24;7.78;;;1.30;;
49728;SDS011;35617;50.714;7.114;2022-09-09T03:56:50;4.68;;;1.20;;
49728;SDS011;35617;50.714;7.114;2022-09-09T03:59:15;6.57;;;1.40;;
49728;SDS011;35617;50.714;7.114;2022-09-09T04:01:44;4.97;;;1.35;;
49728;SDS011;35617;50.714;7.114;2022-09-09T04:04:10;6.78;;;1.80;;
49728;SDS011;35617;50.714;7.114;2022-09-09T04:06:37;8.40;;;1.60;;
49728;SDS011;35617;50.714;7.114;2022-09-09T04:09:02;6.68;;;1.77;;
49728;SDS011;35617;50.714;7.114;2022-09-09T04:11:28;7.25;;;1.30;;
49728;SDS011;35617;50.714;7.114;2022-09-09T04:13:54;5.45;;;1.13;;
49728;SDS011;35617;50.714;7.114;2022-09-09T04:16:19;5.38;;;1.10;;
49728;SDS011;35617;50.714;7.114;2022-09-09T04:18:45;3.88;;;1.10;;
49728;SDS011;35617;50.714;7.114;2022-09-09T04:21:11;5.10;;;1.00;;
49728;SDS011;35617;50.714;7.114;2022-09-09T04:23:37;4.90;;;1.20;;
49728;SDS011;35617;50.714;7.114;2022-09-09T04:26:03;7.57;;;1.40;;
49728;SDS011;35617;50.714;7.114;2022-09-09T04:28:31;4.22;;;1.08;;
49728;SDS011;35617;50.714;7.114;2022-09-09T04:31:14;5.80;;;1.45;;
49728;SDS011;35617;50.714;7.114;2022-09-09T04:33:48;5.60;;;1.30;;
49728;SDS011;35617;50.714;7.114;2022-09-09T04:36:17;7.88;;;1.40;;
49728;SDS011;35617;50.714;7.114;2022-09-09T04:38:44;4.57;;;1.30;;
49728;SDS011;35617;50.714;7.114;2022-09-09T04:41:10;5.97;;;1.20;;
49728;SDS011;35617;50.714;7.114;2022-09-09T04:43:37;9.23;;;1.58;;
49728;SDS011;35617;50.714;7.114;2022-09-09T04:46:03;8.10;;;1.60;;
49728;SDS011;35617;50.714;7.114;2022-09-09T04:48:28;6.88;;;1.48;;
49728;SDS011;35617;50.714;7.114;2022-09-09T04:53:31;6.05;;;1.38;;
49728;SDS011;35617;50.714;7.114;2022-09-09T04:56:05;7.25;;;1.60;;
49728;SDS011;35617;50.714;7.114;2022-09-09T04:58:32;5.35;;;1.30;;
49728;SDS011;35617;50.714;7.114;2022-09-09T05:01:08;7.10;;;1.52;;
49728;SDS011;35617;50.714;7.114;2022-09-09T05:03:36;5.00;;;1.40;;
49728;SDS011;35617;50.714;7.114;2022-09-09T05:06:03;5.85;;;1.30;;
49728;SDS011;35617;50.714;7.114;2022-09-09T05:08:33;5.60;;;1.30;;
49728;SDS011;35617;50.714;7.114;2022-09-09T05:10:59;5.00;;;1.40;;
49728;SDS011;35617;50.714;7.114;2022-09-09T05:13:25;5.07;;;1.20;;
49728;SDS011;35617;50.714;7.114;2022-09-09T05:15:54;4.88;;;1.40;;
49728;SDS011;35617;50.714;7.114;2022-09-09T05:18:20;5.35;;;1.30;;
49728;SDS011;35617;50.714;7.114;2022-09-09T05:20:47;4.32;;;1.20;;
49728;SDS011;35617;50.714;7.114;2022-09-09T05:23:13;7.75;;;1.90;;
49728;SDS011;35617;50.714;7.114;2022-09-09T05:25:39;4.70;;;1.48;;
49728;SDS011;35617;50.714;7.114;2022-09-09T05:28:06;5.53;;;1.38;;
49728;SDS011;35617;50.714;7.114;2022-09-09T05:30:33;3.97;;;1.23;;
49728;SDS011;35617;50.714;7.114;2022-09-09T05:32:59;5.57;;;1.10;;
49728;SDS011;35617;50.714;7.114;2022-09-09T05:35:24;7.35;;;1.30;;
49728;SDS011;35617;50.714;7.114;2022-09-09T05:37:50;7.20;;;1.40;;
49728;SDS011;35617;50.714;7.114;2022-09-09T05:40:16;6.32;;;1.30;;
49728;SDS011;35617;50.714;7.114;2022-09-09T05:42:41;7.13;;;1.60;;
49728;SDS011;35617;50.714;7.114;2022-09-09T05:45:07;6.93;;;1.35;;
49728;SDS011;35617;50.714;7.114;2022-09-09T05:47:34;7.25;;;1.40;;
49728;SDS011;35617;50.714;7.114;2022-09-09T05:50:00;4.57;;;1.23;;
49728;SDS011;35617;50.714;7.114;2022-09-09T05:52:26;4.57;;;1.20;;
49728;SDS011;35617;50.714;7.114;2022-09-09T05:54:52;5.97;;;1.80;;
49728;SDS011;35617;50.714;7.114;2022-09-09T05:57:20;6.15;;;1.58;;
49728;SDS011;35617;50.714;7.114;2022-09-09T05:59:45;7.65;;;1.40;;
49728;SDS011;35617;50.714;7.114;2022-09-09T06:02:11;6.35;;;1.63;;
49728;SDS011;35617;50.714;7.114;2022-09-09T06:04:38;7.40;;;1.63;;
49728;SDS011;35617;50.714;7.114;2022-09-09T06:07:04;7.45;;;1.50;;
49728;SDS011;35617;50.714;7.114;2022-09-09T06:09:30;8.23;;;1.60;;
49728;SDS011;35617;50.714;7.114;2022-09-09T06:11:56;7.03;;;1.48;;
49728;SDS011;35617;50.714;7.114;2022-09-09T06:14:22;4.60;;;1.20;;
49728;SDS011;35617;50.714;7.114;2022-09-09T06:16:48;6.03;;;1.42;;
49728;SDS011;35617;50.714;7.114;2022-09-09T06:19:14;6.22;;;2.10;;
49728;SDS011;35617;50.714;7.114;2022-09-09T06:21:40;6.30;;;1.63;;
49728;SDS011;35617;50.714;7.114;2022-09-09T06:24:06;6.15;;;1.52;;
49728;SDS011;35617;50.714;7.114;2022-09-09T06:26:36;5.28;;;1.30;;
49728;SDS011;35617;50.714;7.114;2022-09-09T06:29:06;7.35;;;1.50;;
49728;SDS011;35617;50.714;7.114;2022-09-09T06:31:33;8.25;;;3.10;;
49728;SDS011;35617;50.714;7.114;2022-09-09T06:34:00;6.00;;;2.10;;
49728;SDS011;35617;50.714;7.114;2022-09-09T06:36:27;6.68;;;2.05;;
49728;SDS011;35617;50.714;7.114;2022-09-09T06:38:57;4.82;;;1.80;;
49728;SDS011;35617;50.714;7.114;2022-09-09T06:41:24;7.03;;;1.48;;
49728;SDS011;35617;50.714;7.114;2022-09-09T06:43:53;7.82;;;2.13;;
49728;SDS011;35617;50.714;7.114;2022-09-09T06:46:27;7.70;;;1.73;;
49728;SDS011;35617;50.714;7.114;2022-09-09T06:48:56;8.88;;;2.25;;
49728;SDS011;35617;50.714;7.114;2022-09-09T06:51:24;6.72;;;1.50;;
49728;SDS011;35617;50.714;7.114;2022-09-09T06:53:52;5.53;;;1.60;;
49728;SDS011;35617;50.714;7.114;2022-09-09T06:56:24;7.78;;;1.42;;
49728;SDS011;35617;50.714;7.114;2022-09-09T06:58:55;6.80;;;2.00;;
49728;SDS011;35617;50.714;7.114;2022-09-09T07:01:28;5.90;;;1.63;;
49728;SDS011;35617;50.714;7.114;2022-09-09T07:04:12;5.35;;;1.00;;
49728;SDS011;35617;50.714;7.114;2022-09-09T07:06:42;8.07;;;1.85;;
49728;SDS011;35617;50.714;7.114;2022-09-09T07:09:10;6.43;;;1.55;;
49728;SDS011;35617;50.714;7.114;2022-09-09T07:11:41;5.60;;;1.40;;
49728;SDS011;35617;50.714;7.114;2022-09-09T07:14:08;6.10;;;1.40;;
49728;SDS011;35617;50.714;7.114;2022-09-09T07:16:37;5.00;;;1.63;;
49728;SDS011;35617;50.714;7.114;2022-09-09T07:19:03;6.10;;;1.42;;
49728;SDS011;35617;50.714;7.114;2022-09-09T07:21:29;8.80;;;1.77;;
49728;SDS011;35617;50.714;7.114;2022-09-09T07:23:56;6.88;;;1.40;;
49728;SDS011;35617;50.714;7.114;2022-09-09T07:26:27;5.55;;;1.50;;
49728;SDS011;35617;50.714;7.114;2022-09-09T07:28:55;7.32;;;1.20;;
49728;SDS011;35617;50.714;7.114;2022-09-09T07:31:26;5.40;;;1.30;;
49728;SDS011;35617;50.714;7.114;2022-09-09T07:33:56;6.78;;;1.40;;
49728;SDS011;35617;50.714;7.114;2022-09-09T07:36:23;5.65;;;1.13;;
49728;SDS011;35617;50.714;7.114;2022-09-09T07:38:52;6.18;;;1.30;;
49728;SDS011;35617;50.714;7.114;2022-09-09T07:41:27;9.82;;;1.42;;
49728;SDS011;35617;50.714;7.114;2022-09-09T07:44:09;5.45;;;1.15;;
49728;SDS011;35617;50.714;7.114;2022-09-09T07:46:37;6.15;;;1.45;;
49728;SDS011;35617;50.714;7.114;2022-09-09T07:49:06;5.82;;;1.30;;
49728;SDS011;35617;50.714;7.114;2022-09-09T07:51:34;10.05;;;1.42;;
49728;SDS011;35617;50.714;7.114;2022-09-09T07:54:02;7.38;;;1.40;;
49728;SDS011;35617;50.714;7.114;2022-09-09T07:56:30;8.00;;;1.50;;
49728;SDS011;35617;50.714;7.114;2022-09-09T07:58:57;6.53;;;1.63;;
49728;SDS011;35617;50.714;7.114;2022-09-09T08:01:28;6.75;;;1.20;;
49728;SDS011;35617;50.714;7.114;2022-09-09T08:04:03;10.15;;;1.83;;
49728;SDS011;35617;50.714;7.114;2022-09-09T08:06:31;6.47;;;1.20;;
49728;SDS011;35617;50.714;7.114;2022-09-09T08:08:59;9.15;;;1.80;;
49728;SDS011;35617;50.714;7.114;2022-09-09T08:11:25;6.20;;;1.40;;
49728;SDS011;35617;50.714;7.114;2022-09-09T08:13:53;6.43;;;1.20;;
49728;SDS011;35617;50.714;7.114;2022-09-09T08:16:20;7.13;;;1.35;;
49728;SDS011;35617;50.714;7.114;2022-09-09T08:18:55;6.95;;;1.40;;
49728;SDS011;35617;50.714;7.114;2022-09-09T08:21:22;8.50;;;1.90;;
49728;SDS011;35617;50.714;7.114;2022-09-09T08:23:53;7.00;;;1.38;;
49728;SDS011;35617;50.714;7.114;2022-09-09T08:26:21;6.05;;;1.25;;
49728;SDS011;35617;50.714;7.114;2022-09-09T08:28:49;6.28;;;1.55;;
49728;SDS011;35617;50.714;7.114;2022-09-09T08:31:19;7.57;;;1.83;;
49728;SDS011;35617;50.714;7.114;2022-09-09T08:33:47;8.50;;;1.83;;
49728;SDS011;35617;50.714;7.114;2022-09-09T08:36:14;6.70;;;1.70;;
49728;SDS011;35617;50.714;7.114;2022-09-09T08:38:48;6.10;;;1.63;;
49728;SDS011;35617;50.714;7.114;2022-09-09T08:52:02;4.88;;;1.00;;
49728;SDS011;35617;50.714;7.114;2022-09-09T08:54:35;6.68;;;1.58;;
49728;SDS011;35617;50.714;7.114;2022-09-09T08:57:01;7.18;;;1.10;;
49728;SDS011;35617;50.714;7.114;2022-09-09T08:59:35;5.95;;;1.20;;
49728;SDS011;35617;50.714;7.114;2022-09-09T09:02:14;4.55;;;1.10;;
49728;SDS011;35617;50.714;7.114;2022-09-09T09:07:28;6.07;;;1.20;;
49728;SDS011;35617;50.714;7.114;2022-09-09T09:10:31;6.03;;;1.40;;
49728;SDS011;35617;50.714;7.114;2022-09-09T09:14:09;5.93;;;1.38;;
49728;SDS011;35617;50.714;7.114;2022-09-09T09:16:32;5.78;;;1.20;;
49728;SDS011;35617;50.714;7.114;2022-09-09T09:19:03;4.65;;;1.00;;
49728;SDS011;35617;50.714;7.114;2022-09-09T09:24:53;5.63;;;1.10;;
49728;SDS011;35617;50.714;7.114;2022-09-09T09:27:12;6.05;;;1.23;;
49728;SDS011;35617;50.714;7.114;2022-09-09T09:29:39;5.05;;;1.23;;
49728;SDS011;35617;50.714;7.114;2022-09-09T09:32:07;3.78;;;0.82;;
49728;SDS011;35617;50.714;7.114;2022-09-09T09:34:38;5.07;;;1.00;;
49728;SDS011;35617;50.714;7.114;2022-09-09T09:37:07;5.32;;;1.08;;
49728;SDS011;35617;50.714;7.114;2022-09-09T09:39:44;5.05;;;1.08;;
49728;SDS011;35617;50.714;7.114;2022-09-09T09:42:11;5.82;;;1.15;;
49728;SDS011;35617;50.714;7.114;2022-09-09T09:44:39;4.18;;;1.08;;
49728;SDS011;35617;50.714;7.114;2022-09-09T09:47:10;4.25;;;1.05;;
49728;SDS011;35617;50.714;7.114;2022-09-09T09:49:38;3.83;;;0.82;;
49728;SDS011;35617;50.714;7.114;2022-09-09T09:52:15;6.07;;;1.02;;
49728;SDS011;35617;50.714;7.114;2022-09-09T09:54:45;5.25;;;1.05;;
49728;SDS011;35617;50.714;7.114;2022-09-09T09:57:12;4.70;;;1.00;;
49728;SDS011;35617;50.714;7.114;2022-09-09T09:59:41;6.68;;;1.23;;
49728;SDS011;35617;50.714;7.114;2022-09-09T10:02:14;5.18;;;1.00;;
49728;SDS011;35617;50.714;7.114;2022-09-09T10:07:11;6.38;;;1.20;;
49728;SDS011;35617;50.714;7.114;2022-09-09T10:09:41;5.22;;;1.52;;
49728;SDS011;35617;50.714;7.114;2022-09-09T10:17:59;7.45;;;1.08;;
49728;SDS011;35617;50.714;7.114;2022-09-09T10:20:42;4.80;;;0.90;;
49728;SDS011;35617;50.714;7.114;2022-09-09T10:26:33;4.32;;;1.08;;
49728;SDS011;35617;50.714;7.114;2022-09-09T10:29:30;4.35;;;1.10;;
49728;SDS011;35617;50.714;7.114;2022-09-09T10:35:14;5.03;;;1.00;;
49728;SDS011;35617;50.714;7.114;2022-09-09T10:37:53;6.18;;;1.38;;
49728;SDS011;35617;50.714;7.114;2022-09-09T10:43:19;5.15;;;1.00;;
49728;SDS011;35617;50.714;7.114;2022-09-09T10:48:56;4.65;;;1.23;;
49728;SDS011;35617;50.714;7.114;2022-09-09T10:54:47;4.30;;;0.90;;
49728;SDS011;35617;50.714;7.114;2022-09-09T10:57:53;7.05;;;1.20;;
49728;SDS011;35617;50.714;7.114;2022-09-09T11:02:53;5.10;;;1.20;;
49728;SDS011;35617;50.714;7.114;2022-09-09T11:05:35;5.82;;;1.27;;
49728;SDS011;35617;50.714;7.114;2022-09-09T11:08:12;4.22;;;1.00;;
49728;SDS011;35617;50.714;7.114;2022-09-09T11:15:57;4.25;;;1.30;;
49728;SDS011;35617;50.714;7.114;2022-09-09T11:18:26;5.03;;;1.10;;
49728;SDS011;35617;50.714;7.114;2022-09-09T11:20:56;7.10;;;1.23;;
49728;SDS011;35617;50.714;7.114;2022-09-09T11:26:01;4.00;;;1.00;;
49728;SDS011;35617;50.714;7.114;2022-09-09T11:28:46;4.82;;;1.00;;
49728;SDS011;35617;50.714;7.114;2022-09-09T11:39:51;3.72;;;1.05;;
49728;SDS011;35617;50.714;7.114;2022-09-09T11:42:42;3.67;;;0.88;;
49728;SDS011;35617;50.714;7.114;2022-09-09T11:45:09;3.60;;;0.90;;
49728;SDS011;35617;50.714;7.114;2022-09-09T11:47:36;6.70;;;1.10;;
49728;SDS011;35617;50.714;7.114;2022-09-09T11:55:29;4.95;;;0.90;;
49728;SDS011;35617;50.714;7.114;2022-09-09T11:58:00;3.75;;;0.90;;
49728;SDS011;35617;50.714;7.114;2022-09-09T12:00:39;4.72;;;1.00;;
49728;SDS011;35617;50.714;7.114;2022-09-09T12:06:18;3.67;;;1.17;;
49728;SDS011;35617;50.714;7.114;2022-09-09T12:08:56;5.55;;;1.10;;
49728;SDS011;35617;50.714;7.114;2022-09-09T12:11:42;5.45;;;0.93;;
49728;SDS011;35617;50.714;7.114;2022-09-09T12:14:18;5.38;;;1.40;;
49728;SDS011;35617;50.714;7.114;2022-09-09T12:19:45;3.72;;;0.93;;
49728;SDS011;35617;50.714;7.114;2022-09-09T12:22:22;4.68;;;1.10;;
49728;SDS011;35617;50.714;7.114;2022-09-09T12:25:17;4.43;;;1.45;;
49728;SDS011;35617;50.714;7.114;2022-09-09T12:27:45;4.68;;;0.80;;
49728;SDS011;35617;50.714;7.114;2022-09-09T12:30:27;5.03;;;1.20;;
49728;SDS011;35617;50.714;7.114;2022-09-09T12:33:01;5.43;;;1.10;;
49728;SDS011;35617;50.714;7.114;2022-09-09T12:35:33;4.93;;;1.10;;
49728;SDS011;35617;50.714;7.114;2022-09-09T12:38:00;4.38;;;1.10;;
49728;SDS011;35617;50.714;7.114;2022-09-09T12:40:29;4.18;;;1.00;;
49728;SDS011;35617;50.714;7.114;2022-09-09T12:42:57;5.63;;;1.15;;
49728;SDS011;35617;50.714;7.114;2022-09-09T12:45:27;5.28;;;1.10;;
49728;SDS011;35617;50.714;7.114;2022-09-09T12:48:00;5.13;;;1.17;;
49728;SDS011;35617;50.714;7.114;2022-09-09T12:50:33;6.35;;;1.40;;
49728;SDS011;35617;50.714;7.114;2022-09-09T12:53:09;3.72;;;0.80;;
49728;SDS011;35617;50.714;7.114;2022-09-09T12:55:48;4.80;;;1.00;;
49728;SDS011;35617;50.714;7.114;2022-09-09T12:58:35;4.05;;;1.00;;
49728;SDS011;35617;50.714;7.114;2022-09-09T13:01:03;5.47;;;1.08;;
49728;SDS011;35617;50.714;7.114;2022-09-09T13:03:31;4.22;;;0.98;;
49728;SDS011;35617;50.714;7.114;2022-09-09T13:05:58;8.13;;;1.38;;
49728;SDS011;35617;50.714;7.114;2022-09-09T13:08:37;3.97;;;0.90;;
49728;SDS011;35617;50.714;7.114;2022-09-09T13:11:04;4.80;;;1.15;;
49728;SDS011;35617;50.714;7.114;2022-09-09T13:13:36;3.45;;;0.82;;
49728;SDS011;35617;50.714;7.114;2022-09-09T13:16:06;4.28;;;0.98;;
49728;SDS011;35617;50.714;7.114;2022-09-09T13:18:43;4.35;;;1.00;;
49728;SDS011;35617;50.714;7.114;2022-09-09T13:21:08;3.25;;;0.68;;
49728;SDS011;35617;50.714;7.114;2022-09-09T13:23:35;4.82;;;1.00;;
49728;SDS011;35617;50.714;7.114;2022-09-09T13:28:48;4.78;;;1.13;;
49728;SDS011;35617;50.714;7.114;2022-09-09T13:31:28;4.35;;;0.90;;
49728;SDS011;35617;50.714;7.114;2022-09-09T13:33:55;4.20;;;0.85;;
49728;SDS011;35617;50.714;7.114;2022-09-09T13:36:27;3.38;;;0.80;;
49728;SDS011;35617;50.714;7.114;2022-09-09T13:41:22;3.17;;;0.77;;
49728;SDS011;35617;50.714;7.114;2022-09-09T13:43:49;3.10;;;0.70;;
49728;SDS011;35617;50.714;7.114;2022-09-09T13:46:24;2.90;;;0.70;;
49728;SDS011;35617;50.714;7.114;2022-09-09T13:48:54;4.45;;;0.75;;
49728;SDS011;35617;50.714;7.114;2022-09-09T13:51:26;2.83;;;0.60;;
49728;SDS011;35617;50.714;7.114;2022-09-09T13:54:08;3.65;;;0.80;;
49728;SDS011;35617;50.714;7.114;2022-09-09T13:56:35;4.97;;;1.02;;
49728;SDS011;35617;50.714;7.114;2022-09-09T13:59:03;4.95;;;1.13;;
49728;SDS011;35617;50.714;7.114;2022-09-09T14:01:30;3.75;;;1.00;;
49728;SDS011;35617;50.714;7.114;2022-09-09T14:03:56;3.92;;;1.00;;
49728;SDS011;35617;50.714;7.114;2022-09-09T14:06:22;3.17;;;0.80;;
49728;SDS011;35617;50.714;7.114;2022-09-09T14:08:51;3.33;;;0.63;;
49728;SDS011;35617;50.714;7.114;2022-09-09T14:11:17;2.60;;;0.82;;
49728;SDS011;35617;50.714;7.114;2022-09-09T14:13:47;2.90;;;0.70;;
49728;SDS011;35617;50.714;7.114;2022-09-09T14:16:14;2.97;;;0.70;;
49728;SDS011;35617;50.714;7.114;2022-09-09T14:18:41;3.58;;;0.60;;
49728;SDS011;35617;50.714;7.114;2022-09-09T14:21:07;3.08;;;0.70;;
49728;SDS011;35617;50.714;7.114;2022-09-09T14:23:33;2.42;;;0.50;;
49728;SDS011;35617;50.714;7.114;2022-09-09T14:25:59;2.47;;;0.70;;
49728;SDS011;35617;50.714;7.114;2022-09-09T14:28:25;3.13;;;0.60;;
49728;SDS011;35617;50.714;7.114;2022-09-09T14:30:50;2.47;;;0.65;;
49728;SDS011;35617;50.714;7.114;2022-09-09T14:33:16;4.43;;;0.80;;
49728;SDS011;35617;50.714;7.114;2022-09-09T14:35:43;3.92;;;0.90;;
49728;SDS011;35617;50.714;7.114;2022-09-09T14:38:09;4.60;;;0.70;;
49728;SDS011;35617;50.714;7.114;2022-09-09T14:40:35;3.58;;;0.90;;
49728;SDS011;35617;50.714;7.114;2022-09-09T14:43:02;3.70;;;0.70;;
49728;SDS011;35617;50.714;7.114;2022-09-09T14:45:29;2.83;;;0.80;;
49728;SDS011;35617;50.714;7.114;2022-09-09T14:47:55;3.90;;;0.90;;
49728;SDS011;35617;50.714;7.114;2022-09-09T14:50:21;3.13;;;0.73;;
49728;SDS011;35617;50.714;7.114;2022-09-09T14:52:47;2.55;;;0.73;;
49728;SDS011;35617;50.714;7.114;2022-09-09T14:55:13;3.80;;;0.70;;
49728;SDS011;35617;50.714;7.114;2022-09-09T14:57:40;3.95;;;0.82;;
49728;SDS011;35617;50.714;7.114;2022-09-09T15:00:06;5.18;;;1.05;;
49728;SDS011;35617;50.714;7.114;2022-09-09T15:02:33;3.85;;;0.90;;
49728;SDS011;35617;50.714;7.114;2022-09-09T15:04:59;3.88;;;0.75;;
49728;SDS011;35617;50.714;7.114;2022-09-09T15:07:26;3.78;;;0.70;;
49728;SDS011;35617;50.714;7.114;2022-09-09T15:09:53;4.22;;;0.82;;
49728;SDS011;35617;50.714;7.114;2022-09-09T15:12:21;3.85;;;0.98;;
49728;SDS011;35617;50.714;7.114;2022-09-09T15:14:46;2.92;;;0.85;;
49728;SDS011;35617;50.714;7.114;2022-09-09T15:17:13;4.15;;;0.80;;
49728;SDS011;35617;50.714;7.114;2022-09-09T15:19:39;3.65;;;0.90;;
49728;SDS011;35617;50.714;7.114;2022-09-09T15:22:05;3.90;;;0.80;;
49728;SDS011;35617;50.714;7.114;2022-09-09T15:24:33;4.00;;;0.80;;
49728;SDS011;35617;50.714;7.114;2022-09-09T15:26:59;3.70;;;0.80;;
49728;SDS011;35617;50.714;7.114;2022-09-09T15:29:25;4.03;;;0.80;;
49728;SDS011;35617;50.714;7.114;2022-09-09T15:31:53;5.03;;;0.90;;
49728;SDS011;35617;50.714;7.114;2022-09-09T15:34:21;2.97;;;0.70;;
49728;SDS011;35617;50.714;7.114;2022-09-09T15:36:49;3.00;;;0.70;;
49728;SDS011;35617;50.714;7.114;2022-09-09T15:39:16;2.75;;;0.65;;
49728;SDS011;35617;50.714;7.114;2022-09-09T15:41:46;2.72;;;0.70;;
49728;SDS011;35617;50.714;7.114;2022-09-09T15:44:18;4.20;;;0.80;;
49728;SDS011;35617;50.714;7.114;2022-09-09T15:49:22;2.75;;;0.80;;
49728;SDS011;35617;50.714;7.114;2022-09-09T15:51:58;4.03;;;0.65;;
49728;SDS011;35617;50.714;7.114;2022-09-09T15:54:28;3.15;;;0.63;;
49728;SDS011;35617;50.714;7.114;2022-09-09T15:56:58;3.42;;;1.13;;
49728;SDS011;35617;50.714;7.114;2022-09-09T15:59:28;4.05;;;1.00;;
49728;SDS011;35617;50.714;7.114;2022-09-09T16:01:55;4.25;;;0.80;;
49728;SDS011;35617;50.714;7.114;2022-09-09T16:04:22;3.15;;;0.60;;
49728;SDS011;35617;50.714;7.114;2022-09-09T16:06:53;3.95;;;1.15;;
49728;SDS011;35617;50.714;7.114;2022-09-09T16:09:23;4.10;;;1.15;;
49728;SDS011;35617;50.714;7.114;2022-09-09T16:11:56;4.13;;;0.88;;
49728;SDS011;35617;50.714;7.114;2022-09-09T16:14:31;3.85;;;0.90;;
49728;SDS011;35617;50.714;7.114;2022-09-09T16:17:00;4.28;;;1.00;;
49728;SDS011;35617;50.714;7.114;2022-09-09T16:19:35;3.95;;;0.90;;
49728;SDS011;35617;50.714;7.114;2022-09-09T16:22:03;3.75;;;0.90;;
49728;SDS011;35617;50.714;7.114;2022-09-09T16:24:30;3.58;;;0.90;;
49728;SDS011;35617;50.714;7.114;2022-09-09T16:26:58;3.35;;;0.80;;
49728;SDS011;35617;50.714;7.114;2022-09-09T16:29:24;6.60;;;0.98;;
49728;SDS011;35617;50.714;7.114;2022-09-09T16:31:53;3.58;;;0.80;;
49728;SDS011;35617;50.714;7.114;2022-09-09T16:34:25;5.60;;;1.00;;
49728;SDS011;35617;50.714;7.114;2022-09-09T16:36:51;5.60;;;0.85;;
49728;SDS011;35617;50.714;7.114;2022-09-09T16:39:17;3.60;;;0.80;;
49728;SDS011;35617;50.714;7.114;2022-09-09T16:41:52;3.65;;;0.80;;
49728;SDS011;35617;50.714;7.114;2022-09-09T16:44:17;5.47;;;1.25;;
49728;SDS011;35617;50.714;7.114;2022-09-09T16:46:44;4.90;;;1.02;;
49728;SDS011;35617;50.714;7.114;2022-09-09T16:49:12;3.40;;;0.70;;
49728;SDS011;35617;50.714;7.114;2022-09-09T16:51:40;2.88;;;0.77;;
49728;SDS011;35617;50.714;7.114;2022-09-09T16:54:07;5.57;;;1.70;;
49728;SDS011;35617;50.714;7.114;2022-09-09T16:56:35;3.92;;;0.82;;
49728;SDS011;35617;50.714;7.114;2022-09-09T16:59:09;3.85;;;0.80;;
49728;SDS011;35617;50.714;7.114;2022-09-09T17:04:03;3.33;;;0.93;;
49728;SDS011;35617;50.714;7.114;2022-09-09T17:06:31;3.47;;;0.80;;
49728;SDS011;35617;50.714;7.114;2022-09-09T17:09:02;3.58;;;0.70;;
49728;SDS011;35617;50.714;7.114;2022-09-09T17:11:30;4.22;;;0.93;;